sensor_id;sensor_type;location;lat;lon;timestamp;P1;durP1;ratioP1;P2;durP2;ratioP2
25846;SDS011;13676;50.168;8.568;2024-01-30T00:03:43;22.65;;;12.90;;
25846;SDS011;13676;50.168;8.568;2024-01-30T00:06:08;25.45;;;13.40;;
25846;SDS011;13676;50.168;8.568;2024-01-30T00:08:34;23.75;;;13.23;;
25846;SDS011;13676;50.168;8.568;2024-01-30T00:10:59;21.67;;;13.65;;
25846;SDS011;13676;50.168;8.568;2024-01-30T00:13:25;17.40;;;13.20;;
25846;SDS011;13676;50.168;8.568;2024-01-30T00:15:52;22.60;;;13.10;;
25846;SDS011;13676;50.168;8.568;2024-01-30T00:18:19;15.82;;;11.27;;
25846;SDS011;13676;50.168;8.568;2024-01-30T00:20:44;21.92;;;12.77;;
25846;SDS011;13676;50.168;8.568;2024-01-30T00:23:10;20.17;;;12.45;;
25846;SDS011;13676;50.168;8.568;2024-01-30T00:25:35;28.13;;;13.48;;
25846;SDS011;13676;50.168;8.568;2024-01-30T00:28:01;22.70;;;14.48;;
25846;SDS011;13676;50.168;8.568;2024-01-30T00:30:26;19.15;;;13.00;;
25846;SDS011;13676;50.168;8.568;2024-01-30T00:32:52;20.05;;;12.90;;
25846;SDS011;13676;50.168;8.568;2024-01-30T00:35:18;17.85;;;11.95;;
25846;SDS011;13676;50.168;8.568;2024-01-30T00:37:44;19.63;;;12.60;;
25846;SDS011;13676;50.168;8.568;2024-01-30T00:40:09;21.00;;;12.75;;
25846;SDS011;13676;50.168;8.568;2024-01-30T00:42:40;22.60;;;13.98;;
25846;SDS011;13676;50.168;8.568;2024-01-30T00:45:12;20.25;;;13.43;;
25846;SDS011;13676;50.168;8.568;2024-01-30T00:47:38;19.42;;;12.18;;
25846;SDS011;13676;50.168;8.568;2024-01-30T00:50:04;18.38;;;13.00;;
25846;SDS011;13676;50.168;8.568;2024-01-30T00:52:31;19.38;;;13.20;;
25846;SDS011;13676;50.168;8.568;2024-01-30T00:54:59;21.88;;;13.63;;
25846;SDS011;13676;50.168;8.568;2024-01-30T00:57:25;21.65;;;13.77;;
25846;SDS011;13676;50.168;8.568;2024-01-30T00:59:50;21.73;;;14.05;;
25846;SDS011;13676;50.168;8.568;2024-01-30T01:02:16;22.08;;;13.60;;
25846;SDS011;13676;50.168;8.568;2024-01-30T01:04:42;16.52;;;12.63;;
25846;SDS011;13676;50.168;8.568;2024-01-30T01:07:09;17.60;;;13.07;;
25846;SDS011;13676;50.168;8.568;2024-01-30T01:09:35;24.90;;;13.95;;
25846;SDS011;13676;50.168;8.568;2024-01-30T01:12:00;21.00;;;13.52;;
25846;SDS011;13676;50.168;8.568;2024-01-30T01:14:28;18.55;;;12.88;;
25846;SDS011;13676;50.168;8.568;2024-01-30T01:16:53;21.58;;;13.18;;
25846;SDS011;13676;50.168;8.568;2024-01-30T01:19:19;16.85;;;12.23;;
25846;SDS011;13676;50.168;8.568;2024-01-30T01:21:44;16.23;;;12.05;;
25846;SDS011;13676;50.168;8.568;2024-01-30T01:24:10;21.45;;;12.88;;
25846;SDS011;13676;50.168;8.568;2024-01-30T01:26:35;20.45;;;12.80;;
25846;SDS011;13676;50.168;8.568;2024-01-30T01:29:00;19.65;;;12.55;;
25846;SDS011;13676;50.168;8.568;2024-01-30T01:31:26;22.23;;;12.55;;
25846;SDS011;13676;50.168;8.568;2024-01-30T01:33:54;19.67;;;12.48;;
25846;SDS011;13676;50.168;8.568;2024-01-30T01:36:20;23.02;;;13.07;;
25846;SDS011;13676;50.168;8.568;2024-01-30T01:38:45;16.83;;;11.85;;
25846;SDS011;13676;50.168;8.568;2024-01-30T01:41:10;16.48;;;11.77;;
25846;SDS011;13676;50.168;8.568;2024-01-30T01:43:36;18.27;;;11.95;;
25846;SDS011;13676;50.168;8.568;2024-01-30T01:46:04;23.70;;;12.23;;
25846;SDS011;13676;50.168;8.568;2024-01-30T01:48:30;19.73;;;12.65;;
25846;SDS011;13676;50.168;8.568;2024-01-30T01:50:55;19.00;;;12.98;;
25846;SDS011;13676;50.168;8.568;2024-01-30T01:53:20;19.80;;;12.70;;
25846;SDS011;13676;50.168;8.568;2024-01-30T01:55:47;22.70;;;12.60;;
25846;SDS011;13676;50.168;8.568;2024-01-30T01:58:14;17.67;;;11.88;;
25846;SDS011;13676;50.168;8.568;2024-01-30T02:00:40;18.58;;;12.48;;
25846;SDS011;13676;50.168;8.568;2024-01-30T02:03:06;20.33;;;12.23;;
25846;SDS011;13676;50.168;8.568;2024-01-30T02:05:35;18.10;;;12.18;;
25846;SDS011;13676;50.168;8.568;2024-01-30T02:08:02;18.42;;;12.25;;
25846;SDS011;13676;50.168;8.568;2024-01-30T02:10:28;20.17;;;12.57;;
25846;SDS011;13676;50.168;8.568;2024-01-30T02:12:53;19.60;;;12.82;;
25846;SDS011;13676;50.168;8.568;2024-01-30T02:15:21;18.45;;;12.43;;
25846;SDS011;13676;50.168;8.568;2024-01-30T02:17:46;22.88;;;13.25;;
25846;SDS011;13676;50.168;8.568;2024-01-30T02:20:12;15.55;;;11.45;;
25846;SDS011;13676;50.168;8.568;2024-01-30T02:22:38;16.35;;;11.10;;
25846;SDS011;13676;50.168;8.568;2024-01-30T02:25:05;21.90;;;13.00;;
25846;SDS011;13676;50.168;8.568;2024-01-30T02:27:31;18.83;;;11.75;;
25846;SDS011;13676;50.168;8.568;2024-01-30T02:29:57;17.40;;;11.85;;
25846;SDS011;13676;50.168;8.568;2024-01-30T02:32:22;21.17;;;12.40;;
25846;SDS011;13676;50.168;8.568;2024-01-30T02:34:47;19.83;;;12.43;;
25846;SDS011;13676;50.168;8.568;2024-01-30T02:37:13;21.02;;;12.15;;
25846;SDS011;13676;50.168;8.568;2024-01-30T02:39:38;19.33;;;11.95;;
25846;SDS011;13676;50.168;8.568;2024-01-30T02:42:05;20.98;;;12.27;;
25846;SDS011;13676;50.168;8.568;2024-01-30T02:44:30;17.65;;;12.18;;
25846;SDS011;13676;50.168;8.568;2024-01-30T02:46:57;17.73;;;12.25;;
25846;SDS011;13676;50.168;8.568;2024-01-30T02:49:23;21.98;;;13.00;;
25846;SDS011;13676;50.168;8.568;2024-01-30T02:51:48;18.25;;;12.30;;
25846;SDS011;13676;50.168;8.568;2024-01-30T02:54:14;19.35;;;13.25;;
25846;SDS011;13676;50.168;8.568;2024-01-30T02:56:41;18.02;;;11.68;;
25846;SDS011;13676;50.168;8.568;2024-01-30T02:59:06;17.33;;;11.63;;
25846;SDS011;13676;50.168;8.568;2024-01-30T03:01:32;17.13;;;11.98;;
25846;SDS011;13676;50.168;8.568;2024-01-30T03:03:58;15.48;;;10.85;;
25846;SDS011;13676;50.168;8.568;2024-01-30T03:06:24;19.05;;;11.88;;
25846;SDS011;13676;50.168;8.568;2024-01-30T03:08:49;21.50;;;11.30;;
25846;SDS011;13676;50.168;8.568;2024-01-30T03:11:14;18.17;;;11.77;;
25846;SDS011;13676;50.168;8.568;2024-01-30T03:13:40;15.18;;;10.98;;
25846;SDS011;13676;50.168;8.568;2024-01-30T03:16:08;20.83;;;11.80;;
25846;SDS011;13676;50.168;8.568;2024-01-30T03:18:33;19.83;;;12.38;;
25846;SDS011;13676;50.168;8.568;2024-01-30T03:20:59;16.23;;;11.63;;
25846;SDS011;13676;50.168;8.568;2024-01-30T03:23:25;15.88;;;10.52;;
25846;SDS011;13676;50.168;8.568;2024-01-30T03:25:51;18.48;;;10.73;;
25846;SDS011;13676;50.168;8.568;2024-01-30T03:28:17;19.77;;;11.55;;
25846;SDS011;13676;50.168;8.568;2024-01-30T03:30:42;20.27;;;12.18;;
25846;SDS011;13676;50.168;8.568;2024-01-30T03:33:09;18.02;;;11.32;;
25846;SDS011;13676;50.168;8.568;2024-01-30T03:35:34;16.33;;;10.82;;
25846;SDS011;13676;50.168;8.568;2024-01-30T03:37:59;20.80;;;11.80;;
25846;SDS011;13676;50.168;8.568;2024-01-30T03:40:25;17.02;;;11.65;;
25846;SDS011;13676;50.168;8.568;2024-01-30T03:42:50;19.30;;;12.35;;
25846;SDS011;13676;50.168;8.568;2024-01-30T03:45:15;17.85;;;11.50;;
25846;SDS011;13676;50.168;8.568;2024-01-30T03:50:16;19.80;;;12.48;;
25846;SDS011;13676;50.168;8.568;2024-01-30T03:55:09;18.98;;;12.20;;
25846;SDS011;13676;50.168;8.568;2024-01-30T03:57:34;18.58;;;11.40;;
25846;SDS011;13676;50.168;8.568;2024-01-30T04:00:01;17.48;;;11.32;;
25846;SDS011;13676;50.168;8.568;2024-01-30T04:02:26;23.90;;;12.43;;
25846;SDS011;13676;50.168;8.568;2024-01-30T04:04:53;16.27;;;10.98;;
25846;SDS011;13676;50.168;8.568;2024-01-30T04:07:18;17.33;;;11.63;;
25846;SDS011;13676;50.168;8.568;2024-01-30T04:09:44;17.55;;;11.07;;
25846;SDS011;13676;50.168;8.568;2024-01-30T04:12:09;19.30;;;11.80;;
25846;SDS011;13676;50.168;8.568;2024-01-30T04:14:38;17.05;;;11.70;;
25846;SDS011;13676;50.168;8.568;2024-01-30T04:17:03;16.52;;;11.23;;
25846;SDS011;13676;50.168;8.568;2024-01-30T04:19:29;18.80;;;11.90;;
25846;SDS011;13676;50.168;8.568;2024-01-30T04:24:29;17.63;;;10.20;;
25846;SDS011;13676;50.168;8.568;2024-01-30T04:32:01;18.17;;;11.52;;
25846;SDS011;13676;50.168;8.568;2024-01-30T04:37:01;17.23;;;11.75;;
25846;SDS011;13676;50.168;8.568;2024-01-30T04:39:28;21.27;;;11.77;;
25846;SDS011;13676;50.168;8.568;2024-01-30T04:41:55;16.90;;;11.52;;
25846;SDS011;13676;50.168;8.568;2024-01-30T04:44:20;16.25;;;10.80;;
25846;SDS011;13676;50.168;8.568;2024-01-30T04:46:47;15.57;;;10.73;;
25846;SDS011;13676;50.168;8.568;2024-01-30T04:49:12;16.95;;;11.25;;
25846;SDS011;13676;50.168;8.568;2024-01-30T04:51:37;20.17;;;10.85;;
25846;SDS011;13676;50.168;8.568;2024-01-30T04:54:03;17.75;;;11.55;;
25846;SDS011;13676;50.168;8.568;2024-01-30T04:56:28;20.80;;;12.15;;
25846;SDS011;13676;50.168;8.568;2024-01-30T04:58:54;20.45;;;11.70;;
25846;SDS011;13676;50.168;8.568;2024-01-30T05:01:19;18.15;;;11.50;;
25846;SDS011;13676;50.168;8.568;2024-01-30T05:03:46;17.40;;;11.75;;
25846;SDS011;13676;50.168;8.568;2024-01-30T05:06:11;17.77;;;10.68;;
25846;SDS011;13676;50.168;8.568;2024-01-30T05:08:37;17.92;;;11.48;;
25846;SDS011;13676;50.168;8.568;2024-01-30T05:11:03;17.52;;;11.23;;
25846;SDS011;13676;50.168;8.568;2024-01-30T05:13:33;17.38;;;11.07;;
25846;SDS011;13676;50.168;8.568;2024-01-30T05:16:01;22.08;;;11.57;;
25846;SDS011;13676;50.168;8.568;2024-01-30T05:18:28;18.05;;;11.45;;
25846;SDS011;13676;50.168;8.568;2024-01-30T05:20:53;18.45;;;11.65;;
25846;SDS011;13676;50.168;8.568;2024-01-30T05:23:18;17.23;;;11.43;;
25846;SDS011;13676;50.168;8.568;2024-01-30T05:36:04;19.13;;;11.48;;
25846;SDS011;13676;50.168;8.568;2024-01-30T05:41:05;19.73;;;11.68;;
25846;SDS011;13676;50.168;8.568;2024-01-30T05:43:30;18.23;;;11.88;;
25846;SDS011;13676;50.168;8.568;2024-01-30T05:45:56;23.67;;;12.75;;
25846;SDS011;13676;50.168;8.568;2024-01-30T05:48:21;22.17;;;13.55;;
25846;SDS011;13676;50.168;8.568;2024-01-30T05:50:47;18.05;;;12.82;;
25846;SDS011;13676;50.168;8.568;2024-01-30T05:53:12;21.52;;;12.65;;
25846;SDS011;13676;50.168;8.568;2024-01-30T05:55:38;17.17;;;11.05;;
25846;SDS011;13676;50.168;8.568;2024-01-30T05:58:03;21.58;;;12.05;;
25846;SDS011;13676;50.168;8.568;2024-01-30T06:00:29;22.42;;;12.38;;
25846;SDS011;13676;50.168;8.568;2024-01-30T06:02:54;16.63;;;11.77;;
25846;SDS011;13676;50.168;8.568;2024-01-30T06:05:20;21.55;;;12.50;;
25846;SDS011;13676;50.168;8.568;2024-01-30T06:07:45;20.88;;;12.57;;
25846;SDS011;13676;50.168;8.568;2024-01-30T06:10:10;20.67;;;13.00;;
25846;SDS011;13676;50.168;8.568;2024-01-30T06:12:39;19.47;;;12.97;;
25846;SDS011;13676;50.168;8.568;2024-01-30T06:15:05;20.20;;;13.00;;
25846;SDS011;13676;50.168;8.568;2024-01-30T06:17:31;21.73;;;13.50;;
25846;SDS011;13676;50.168;8.568;2024-01-30T06:19:57;24.17;;;15.10;;
25846;SDS011;13676;50.168;8.568;2024-01-30T06:22:22;21.13;;;12.65;;
25846;SDS011;13676;50.168;8.568;2024-01-30T06:24:48;21.17;;;14.05;;
25846;SDS011;13676;50.168;8.568;2024-01-30T06:27:14;19.95;;;13.07;;
25846;SDS011;13676;50.168;8.568;2024-01-30T06:29:40;25.08;;;13.93;;
25846;SDS011;13676;50.168;8.568;2024-01-30T06:32:06;21.88;;;14.38;;
25846;SDS011;13676;50.168;8.568;2024-01-30T06:34:31;23.55;;;14.80;;
25846;SDS011;13676;50.168;8.568;2024-01-30T06:36:57;22.50;;;14.75;;
25846;SDS011;13676;50.168;8.568;2024-01-30T06:39:22;22.95;;;13.43;;
25846;SDS011;13676;50.168;8.568;2024-01-30T06:41:48;26.35;;;13.32;;
25846;SDS011;13676;50.168;8.568;2024-01-30T06:44:13;20.55;;;13.65;;
25846;SDS011;13676;50.168;8.568;2024-01-30T06:46:39;19.80;;;12.48;;
25846;SDS011;13676;50.168;8.568;2024-01-30T06:49:05;21.77;;;13.25;;
25846;SDS011;13676;50.168;8.568;2024-01-30T06:51:31;17.80;;;12.23;;
25846;SDS011;13676;50.168;8.568;2024-01-30T06:53:57;19.45;;;13.02;;
25846;SDS011;13676;50.168;8.568;2024-01-30T06:56:22;23.67;;;12.70;;
25846;SDS011;13676;50.168;8.568;2024-01-30T06:58:48;19.67;;;11.57;;
25846;SDS011;13676;50.168;8.568;2024-01-30T07:01:14;21.73;;;12.33;;
25846;SDS011;13676;50.168;8.568;2024-01-30T07:03:41;17.98;;;12.38;;
25846;SDS011;13676;50.168;8.568;2024-01-30T07:06:07;19.80;;;12.35;;
25846;SDS011;13676;50.168;8.568;2024-01-30T07:08:32;20.13;;;12.35;;
25846;SDS011;13676;50.168;8.568;2024-01-30T07:10:57;20.17;;;12.38;;
25846;SDS011;13676;50.168;8.568;2024-01-30T07:13:23;21.10;;;13.25;;
25846;SDS011;13676;50.168;8.568;2024-01-30T07:15:49;17.52;;;11.82;;
25846;SDS011;13676;50.168;8.568;2024-01-30T07:18:14;20.13;;;12.65;;
25846;SDS011;13676;50.168;8.568;2024-01-30T07:20:40;21.33;;;14.00;;
25846;SDS011;13676;50.168;8.568;2024-01-30T07:23:14;20.30;;;13.65;;
25846;SDS011;13676;50.168;8.568;2024-01-30T07:25:43;20.17;;;12.48;;
25846;SDS011;13676;50.168;8.568;2024-01-30T07:28:10;21.42;;;13.23;;
25846;SDS011;13676;50.168;8.568;2024-01-30T07:30:36;21.65;;;13.35;;
25846;SDS011;13676;50.168;8.568;2024-01-30T07:33:02;18.55;;;12.98;;
25846;SDS011;13676;50.168;8.568;2024-01-30T07:35:27;18.67;;;11.82;;
25846;SDS011;13676;50.168;8.568;2024-01-30T07:37:53;21.45;;;13.90;;
25846;SDS011;13676;50.168;8.568;2024-01-30T07:40:18;19.67;;;12.57;;
25846;SDS011;13676;50.168;8.568;2024-01-30T07:42:44;21.88;;;13.20;;
25846;SDS011;13676;50.168;8.568;2024-01-30T07:45:09;18.80;;;12.75;;
25846;SDS011;13676;50.168;8.568;2024-01-30T07:47:36;21.63;;;12.70;;
25846;SDS011;13676;50.168;8.568;2024-01-30T07:50:02;20.03;;;12.70;;
25846;SDS011;13676;50.168;8.568;2024-01-30T07:52:27;21.25;;;12.57;;
25846;SDS011;13676;50.168;8.568;2024-01-30T07:54:53;18.50;;;12.52;;
25846;SDS011;13676;50.168;8.568;2024-01-30T07:57:18;20.58;;;13.57;;
25846;SDS011;13676;50.168;8.568;2024-01-30T07:59:44;18.63;;;13.02;;
25846;SDS011;13676;50.168;8.568;2024-01-30T08:02:10;21.02;;;12.93;;
25846;SDS011;13676;50.168;8.568;2024-01-30T08:04:36;17.95;;;13.20;;
25846;SDS011;13676;50.168;8.568;2024-01-30T08:07:02;21.92;;;14.43;;
25846;SDS011;13676;50.168;8.568;2024-01-30T08:09:27;21.70;;;13.23;;
25846;SDS011;13676;50.168;8.568;2024-01-30T08:11:54;20.65;;;13.68;;
25846;SDS011;13676;50.168;8.568;2024-01-30T08:14:20;21.98;;;14.93;;
25846;SDS011;13676;50.168;8.568;2024-01-30T08:16:45;26.90;;;17.00;;
25846;SDS011;13676;50.168;8.568;2024-01-30T08:19:10;24.85;;;17.20;;
25846;SDS011;13676;50.168;8.568;2024-01-30T08:21:38;31.63;;;18.20;;
25846;SDS011;13676;50.168;8.568;2024-01-30T08:24:03;27.95;;;18.35;;
25846;SDS011;13676;50.168;8.568;2024-01-30T08:26:29;27.40;;;18.50;;
25846;SDS011;13676;50.168;8.568;2024-01-30T08:28:58;30.63;;;18.85;;
25846;SDS011;13676;50.168;8.568;2024-01-30T08:31:25;29.45;;;19.27;;
25846;SDS011;13676;50.168;8.568;2024-01-30T08:33:51;29.60;;;21.20;;
25846;SDS011;13676;50.168;8.568;2024-01-30T08:36:18;31.33;;;20.90;;
25846;SDS011;13676;50.168;8.568;2024-01-30T08:38:44;31.00;;;19.00;;
25846;SDS011;13676;50.168;8.568;2024-01-30T08:41:10;29.85;;;18.50;;
25846;SDS011;13676;50.168;8.568;2024-01-30T08:43:36;25.67;;;17.17;;
25846;SDS011;13676;50.168;8.568;2024-01-30T08:46:05;30.73;;;20.70;;
25846;SDS011;13676;50.168;8.568;2024-01-30T08:48:30;31.65;;;21.15;;
25846;SDS011;13676;50.168;8.568;2024-01-30T08:50:56;30.13;;;18.63;;
25846;SDS011;13676;50.168;8.568;2024-01-30T08:53:21;29.20;;;19.10;;
25846;SDS011;13676;50.168;8.568;2024-01-30T08:55:47;27.63;;;18.35;;
25846;SDS011;13676;50.168;8.568;2024-01-30T08:58:12;26.73;;;17.33;;
25846;SDS011;13676;50.168;8.568;2024-01-30T09:00:38;26.63;;;18.60;;
25846;SDS011;13676;50.168;8.568;2024-01-30T09:03:03;28.80;;;18.58;;
25846;SDS011;13676;50.168;8.568;2024-01-30T09:05:29;26.50;;;18.48;;
25846;SDS011;13676;50.168;8.568;2024-01-30T09:07:54;35.58;;;19.60;;
25846;SDS011;13676;50.168;8.568;2024-01-30T09:10:20;31.35;;;18.88;;
25846;SDS011;13676;50.168;8.568;2024-01-30T09:12:45;29.13;;;18.30;;
25846;SDS011;13676;50.168;8.568;2024-01-30T09:15:11;29.50;;;18.63;;
25846;SDS011;13676;50.168;8.568;2024-01-30T09:17:36;26.25;;;17.52;;
25846;SDS011;13676;50.168;8.568;2024-01-30T09:20:02;29.90;;;18.23;;
25846;SDS011;13676;50.168;8.568;2024-01-30T09:22:27;24.25;;;16.65;;
25846;SDS011;13676;50.168;8.568;2024-01-30T09:24:54;24.38;;;16.98;;
25846;SDS011;13676;50.168;8.568;2024-01-30T09:27:20;27.98;;;16.23;;
25846;SDS011;13676;50.168;8.568;2024-01-30T09:29:45;24.10;;;16.60;;
25846;SDS011;13676;50.168;8.568;2024-01-30T09:32:10;27.73;;;18.08;;
25846;SDS011;13676;50.168;8.568;2024-01-30T09:34:36;30.33;;;18.60;;
25846;SDS011;13676;50.168;8.568;2024-01-30T09:37:01;32.17;;;18.92;;
25846;SDS011;13676;50.168;8.568;2024-01-30T09:39:27;29.80;;;18.45;;
25846;SDS011;13676;50.168;8.568;2024-01-30T09:42:00;28.25;;;17.17;;
25846;SDS011;13676;50.168;8.568;2024-01-30T09:44:45;26.67;;;16.85;;
25846;SDS011;13676;50.168;8.568;2024-01-30T09:47:12;26.10;;;17.35;;
25846;SDS011;13676;50.168;8.568;2024-01-30T09:49:38;27.98;;;18.25;;
25846;SDS011;13676;50.168;8.568;2024-01-30T09:52:05;25.42;;;16.98;;
25846;SDS011;13676;50.168;8.568;2024-01-30T09:54:30;28.15;;;18.90;;
25846;SDS011;13676;50.168;8.568;2024-01-30T09:56:57;26.65;;;16.88;;
25846;SDS011;13676;50.168;8.568;2024-01-30T09:59:23;26.52;;;17.55;;
25846;SDS011;13676;50.168;8.568;2024-01-30T10:01:50;26.65;;;17.98;;
25846;SDS011;13676;50.168;8.568;2024-01-30T10:04:17;23.53;;;16.00;;
25846;SDS011;13676;50.168;8.568;2024-01-30T10:06:42;24.25;;;17.38;;
25846;SDS011;13676;50.168;8.568;2024-01-30T10:09:09;26.88;;;17.95;;
25846;SDS011;13676;50.168;8.568;2024-01-30T10:11:38;26.20;;;18.50;;
25846;SDS011;13676;50.168;8.568;2024-01-30T10:14:03;26.02;;;17.92;;
25846;SDS011;13676;50.168;8.568;2024-01-30T10:16:29;29.48;;;18.63;;
25846;SDS011;13676;50.168;8.568;2024-01-30T10:18:54;29.00;;;17.70;;
25846;SDS011;13676;50.168;8.568;2024-01-30T10:21:20;42.72;;;19.38;;
25846;SDS011;13676;50.168;8.568;2024-01-30T10:23:46;30.98;;;18.10;;
25846;SDS011;13676;50.168;8.568;2024-01-30T10:26:12;32.00;;;19.15;;
25846;SDS011;13676;50.168;8.568;2024-01-30T10:28:37;28.05;;;18.73;;
25846;SDS011;13676;50.168;8.568;2024-01-30T10:31:03;26.13;;;18.60;;
25846;SDS011;13676;50.168;8.568;2024-01-30T10:33:29;28.38;;;18.17;;
25846;SDS011;13676;50.168;8.568;2024-01-30T10:36:00;31.23;;;17.83;;
25846;SDS011;13676;50.168;8.568;2024-01-30T10:38:28;28.10;;;18.50;;
25846;SDS011;13676;50.168;8.568;2024-01-30T10:40:56;31.67;;;19.20;;
25846;SDS011;13676;50.168;8.568;2024-01-30T10:43:22;28.33;;;18.55;;
25846;SDS011;13676;50.168;8.568;2024-01-30T10:45:49;28.52;;;17.85;;
25846;SDS011;13676;50.168;8.568;2024-01-30T10:48:15;27.98;;;18.73;;
25846;SDS011;13676;50.168;8.568;2024-01-30T10:50:42;29.83;;;18.88;;
25846;SDS011;13676;50.168;8.568;2024-01-30T10:53:08;25.42;;;17.95;;
25846;SDS011;13676;50.168;8.568;2024-01-30T10:55:35;25.05;;;17.88;;
25846;SDS011;13676;50.168;8.568;2024-01-30T10:58:01;32.38;;;19.40;;
25846;SDS011;13676;50.168;8.568;2024-01-30T11:00:27;29.35;;;20.08;;
25846;SDS011;13676;50.168;8.568;2024-01-30T11:02:53;36.80;;;19.20;;
25846;SDS011;13676;50.168;8.568;2024-01-30T11:05:25;32.03;;;19.45;;
25846;SDS011;13676;50.168;8.568;2024-01-30T11:07:52;35.35;;;19.90;;
25846;SDS011;13676;50.168;8.568;2024-01-30T11:10:18;35.03;;;19.92;;
25846;SDS011;13676;50.168;8.568;2024-01-30T11:12:45;27.80;;;18.60;;
25846;SDS011;13676;50.168;8.568;2024-01-30T11:15:17;28.38;;;18.77;;
25846;SDS011;13676;50.168;8.568;2024-01-30T11:20:21;28.60;;;18.75;;
25846;SDS011;13676;50.168;8.568;2024-01-30T11:22:56;28.25;;;18.67;;
25846;SDS011;13676;50.168;8.568;2024-01-30T11:25:22;28.92;;;18.60;;
25846;SDS011;13676;50.168;8.568;2024-01-30T11:27:51;27.55;;;19.05;;
25846;SDS011;13676;50.168;8.568;2024-01-30T11:30:25;31.00;;;19.00;;
25846;SDS011;13676;50.168;8.568;2024-01-30T11:33:04;30.05;;;19.10;;
25846;SDS011;13676;50.168;8.568;2024-01-30T11:35:35;33.47;;;18.95;;
25846;SDS011;13676;50.168;8.568;2024-01-30T11:38:02;29.38;;;18.02;;
25846;SDS011;13676;50.168;8.568;2024-01-30T11:40:28;27.70;;;19.23;;
25846;SDS011;13676;50.168;8.568;2024-01-30T11:42:55;31.23;;;19.65;;
25846;SDS011;13676;50.168;8.568;2024-01-30T11:45:22;26.42;;;17.90;;
25846;SDS011;13676;50.168;8.568;2024-01-30T11:47:47;30.45;;;20.15;;
25846;SDS011;13676;50.168;8.568;2024-01-30T11:50:14;26.08;;;18.35;;
25846;SDS011;13676;50.168;8.568;2024-01-30T11:52:41;29.25;;;19.70;;
25846;SDS011;13676;50.168;8.568;2024-01-30T11:55:07;29.05;;;18.88;;
25846;SDS011;13676;50.168;8.568;2024-01-30T11:57:33;28.20;;;19.57;;
25846;SDS011;13676;50.168;8.568;2024-01-30T12:00:00;27.00;;;17.85;;
25846;SDS011;13676;50.168;8.568;2024-01-30T12:02:26;27.75;;;17.45;;
25846;SDS011;13676;50.168;8.568;2024-01-30T12:04:52;28.92;;;19.20;;
25846;SDS011;13676;50.168;8.568;2024-01-30T12:07:17;29.80;;;19.42;;
25846;SDS011;13676;50.168;8.568;2024-01-30T12:09:51;26.05;;;17.88;;
25846;SDS011;13676;50.168;8.568;2024-01-30T12:12:18;27.90;;;19.42;;
25846;SDS011;13676;50.168;8.568;2024-01-30T12:14:44;27.38;;;19.15;;
25846;SDS011;13676;50.168;8.568;2024-01-30T12:17:10;28.33;;;18.40;;
25846;SDS011;13676;50.168;8.568;2024-01-30T12:19:38;24.90;;;16.92;;
25846;SDS011;13676;50.168;8.568;2024-01-30T12:22:03;24.67;;;18.13;;
25846;SDS011;13676;50.168;8.568;2024-01-30T12:24:29;32.00;;;19.13;;
25846;SDS011;13676;50.168;8.568;2024-01-30T12:26:58;29.48;;;18.15;;
25846;SDS011;13676;50.168;8.568;2024-01-30T12:29:24;28.75;;;18.80;;
25846;SDS011;13676;50.168;8.568;2024-01-30T12:31:52;29.38;;;18.80;;
25846;SDS011;13676;50.168;8.568;2024-01-30T12:34:18;27.40;;;17.85;;
25846;SDS011;13676;50.168;8.568;2024-01-30T12:36:46;23.30;;;17.42;;
25846;SDS011;13676;50.168;8.568;2024-01-30T12:39:14;25.52;;;17.60;;
25846;SDS011;13676;50.168;8.568;2024-01-30T12:41:40;28.30;;;17.80;;
25846;SDS011;13676;50.168;8.568;2024-01-30T12:44:06;23.77;;;16.95;;
25846;SDS011;13676;50.168;8.568;2024-01-30T12:46:33;26.08;;;17.45;;
25846;SDS011;13676;50.168;8.568;2024-01-30T12:49:00;29.43;;;19.43;;
25846;SDS011;13676;50.168;8.568;2024-01-30T12:51:26;22.98;;;16.23;;
25846;SDS011;13676;50.168;8.568;2024-01-30T12:53:51;22.92;;;16.75;;
25846;SDS011;13676;50.168;8.568;2024-01-30T12:56:16;25.73;;;16.63;;
25846;SDS011;13676;50.168;8.568;2024-01-30T12:58:42;26.15;;;17.98;;
25846;SDS011;13676;50.168;8.568;2024-01-30T13:01:08;27.65;;;17.13;;
25846;SDS011;13676;50.168;8.568;2024-01-30T13:03:33;30.50;;;18.65;;
25846;SDS011;13676;50.168;8.568;2024-01-30T13:05:59;28.80;;;19.42;;
25846;SDS011;13676;50.168;8.568;2024-01-30T13:08:26;27.52;;;18.80;;
25846;SDS011;13676;50.168;8.568;2024-01-30T13:10:52;25.83;;;16.92;;
25846;SDS011;13676;50.168;8.568;2024-01-30T13:13:19;31.67;;;18.40;;
25846;SDS011;13676;50.168;8.568;2024-01-30T13:15:45;30.27;;;17.58;;
25846;SDS011;13676;50.168;8.568;2024-01-30T13:18:10;25.02;;;16.40;;
25846;SDS011;13676;50.168;8.568;2024-01-30T13:20:36;20.98;;;14.82;;
25846;SDS011;13676;50.168;8.568;2024-01-30T13:23:01;22.92;;;15.80;;
25846;SDS011;13676;50.168;8.568;2024-01-30T13:25:26;18.65;;;14.85;;
25846;SDS011;13676;50.168;8.568;2024-01-30T13:27:52;22.52;;;14.45;;
25846;SDS011;13676;50.168;8.568;2024-01-30T13:30:17;23.65;;;15.02;;
25846;SDS011;13676;50.168;8.568;2024-01-30T13:32:43;20.48;;;15.73;;
25846;SDS011;13676;50.168;8.568;2024-01-30T13:35:09;26.30;;;17.88;;
25846;SDS011;13676;50.168;8.568;2024-01-30T13:37:35;26.77;;;16.00;;
25846;SDS011;13676;50.168;8.568;2024-01-30T13:40:00;22.33;;;16.10;;
25846;SDS011;13676;50.168;8.568;2024-01-30T13:42:27;26.52;;;15.75;;
25846;SDS011;13676;50.168;8.568;2024-01-30T13:44:53;26.67;;;18.48;;
25846;SDS011;13676;50.168;8.568;2024-01-30T13:47:18;32.78;;;18.40;;
25846;SDS011;13676;50.168;8.568;2024-01-30T13:49:48;28.20;;;17.00;;
25846;SDS011;13676;50.168;8.568;2024-01-30T13:52:13;28.73;;;17.17;;
25846;SDS011;13676;50.168;8.568;2024-01-30T13:54:39;29.60;;;18.25;;
25846;SDS011;13676;50.168;8.568;2024-01-30T13:57:04;24.45;;;16.58;;
25846;SDS011;13676;50.168;8.568;2024-01-30T13:59:31;32.97;;;18.00;;
25846;SDS011;13676;50.168;8.568;2024-01-30T14:01:57;25.55;;;17.15;;
25846;SDS011;13676;50.168;8.568;2024-01-30T14:04:22;26.23;;;18.20;;
25846;SDS011;13676;50.168;8.568;2024-01-30T14:06:49;26.65;;;17.33;;
25846;SDS011;13676;50.168;8.568;2024-01-30T14:09:14;32.03;;;17.80;;
25846;SDS011;13676;50.168;8.568;2024-01-30T14:11:40;30.38;;;18.52;;
25846;SDS011;13676;50.168;8.568;2024-01-30T14:14:08;29.25;;;17.90;;
25846;SDS011;13676;50.168;8.568;2024-01-30T14:16:34;30.45;;;16.92;;
25846;SDS011;13676;50.168;8.568;2024-01-30T14:18:59;29.75;;;19.15;;
25846;SDS011;13676;50.168;8.568;2024-01-30T14:21:26;22.95;;;16.98;;
25846;SDS011;13676;50.168;8.568;2024-01-30T14:23:51;24.05;;;16.17;;
25846;SDS011;13676;50.168;8.568;2024-01-30T14:26:16;25.35;;;17.95;;
25846;SDS011;13676;50.168;8.568;2024-01-30T14:28:42;26.65;;;17.02;;
25846;SDS011;13676;50.168;8.568;2024-01-30T14:31:08;29.05;;;18.13;;
25846;SDS011;13676;50.168;8.568;2024-01-30T14:33:34;23.42;;;16.75;;
25846;SDS011;13676;50.168;8.568;2024-01-30T14:35:59;25.77;;;17.88;;
25846;SDS011;13676;50.168;8.568;2024-01-30T14:38:26;27.73;;;16.90;;
25846;SDS011;13676;50.168;8.568;2024-01-30T14:40:53;26.52;;;16.88;;
25846;SDS011;13676;50.168;8.568;2024-01-30T14:43:19;24.65;;;16.73;;
25846;SDS011;13676;50.168;8.568;2024-01-30T14:45:44;29.80;;;18.95;;
25846;SDS011;13676;50.168;8.568;2024-01-30T14:48:12;27.73;;;17.88;;